Terminal Aerodrome Forecast
Issued by NWS Charleston, WV

Current Version | Previous Version | Graphics & Text | Print | Product List | Glossary On
Versions: 1 2 3 4 5 6 7 8 9 10 11 12 13 14 15 16 17 18 19 20 21 22 23 24
773
FTUS41 KRLX 262322
TAFEKN
TAF
KEKN 262322Z 2700/2724 00000KT P6SM SKC
     FM270900 00000KT 4SM BR FEW250
     FM271200 20009KT P6SM SCT250
     FM271800 20009KT P6SM BKN090
     FM272000 21008KT 3SM SHRA VCTS BKN060CB
     FM272200 21008KT P6SM BKN045=

USA.gov is the U.S. government's official web portal to all federal, state and local government web resources and services.